Terminal Aerodrome Forecast
Issued by NWS

Home | Current Version | Previous Version | Text Only | Print | Product List | Glossary On
Versions: 1 2 3 4 5 6 7 8 9 10 11 12 13 14 15 16 17
146
FTUS41 KBGM 130300 AAA
TAFITH
TAF AMD
KITH 130300Z 1303/1324 21008KT P6SM OVC040
     FM130430 30015G25KT 3SM -SHSN OVC025
      TEMPO 1305/1308 1SM -SHSN OVC015
     FM130800 31015G25KT 2SM -SN BLSN OVC025
      TEMPO 1308/1312 1/2SM SN BLSN OVC015
     FM131800 31015G25KT P6SM BKN035=

USA.gov is the U.S. government's official web portal to all federal, state and local government web resources and services.